Home > Products > Valid Products > TAF

000
FTUS41 KCAR 152300
TAFBGR
TAF
KBGR 152320Z 1600/1624 VRB03KT P6SM SCT070
     FM161100 20004KT P6SM OVC003
     FM161300 20004KT 5SM -SHRA OVC008
     FM161500 21005KT P6SM OVC015
     FM161800 23006KT P6SM BKN040=



000
FTUS41 KCAR 152300
TAFPQI
TAF
KPQI 152320Z 1600/1624 26004KT P6SM SCT060
     FM160600 20004KT P6SM BKN060
     FM161000 20005KT P6SM OVC025
     FM161100 20005KT 5SM -SHRA OVC015
     FM161800 23007KT P6SM SCT015 BKN030
      AMD LTD TO CLD VIS AND WIND=



000
FTUS41 KCAR 152300
TAFHUL
TAF
KHUL 152320Z 1600/1624 27004KT P6SM BKN060
     FM161100 20005KT P6SM -SHRA OVC008
     FM161500 21007KT 3SM -SHRA OVC015
     FM161800 22007KT P6SM OVC035=



000
FTUS41 KCAR 152300
TAFBHB
TAF
KBHB 152320Z 1600/1624 VRB03KT P6SM SCT070
     FM161100 20004KT P6SM OVC003
     FM161300 20004KT 5SM -SHRA OVC008
     FM161500 21005KT P6SM OVC015
     FM161800 23006KT P6SM BKN040
      AMD LTD TO CLD VIS AND WIND=



000
FTUS41 KCAR 152300
TAFCAR
TAF
KCAR 152320Z 1600/1624 26004KT P6SM SCT060
     FM160600 20004KT P6SM BKN060
     FM161000 20005KT P6SM OVC025
     FM161100 20005KT 5SM -SHRA OVC015
     FM161800 23007KT P6SM SCT015 BKN030=



000
FTUS41 KCAR 151700
TAFHUL
TAF
KHUL 151738Z 1518/1618 25005KT P6SM BKN045
     FM152100 26005KT P6SM SCT100
     FM160900 20004KT P6SM BKN030
     FM161200 19005KT P6SM -SHRA OVC015=



000
FTUS41 KCAR 151700
TAFBGR
TAF
KBGR 151738Z 1518/1618 28008KT P6SM SCT050
     FM161200 VRB03KT P6SM VCSH BKN025=



000
FTUS41 KCAR 151700
TAFBHB
TAF
KBHB 151738Z 1518/1618 27008KT P6SM SCT050
     FM160900 21004KT P6SM BKN040
      AMD LTD TO CLD VIS AND WIND=



000
FTUS41 KCAR 151700
TAFCAR
TAF
KCAR 151738Z 1518/1618 25004KT P6SM BKN045
     FM152300 23004KT P6SM SCT200
     FM161000 19004KT P6SM BKN030
     FM161200 19005KT P6SM -SHRA OVC015=



000
FTUS41 KCAR 151700
TAFPQI
TAF
KPQI 151738Z 1518/1618 26004KT P6SM BKN045
     FM152300 24005KT P6SM SCT200
     FM160900 19004KT P6SM BKN030
     FM161200 19005KT P6SM -SHRA OVC015
      AMD LTD TO CLD VIS AND WIND=



000
FTUS41 KCAR 151700 AAA
TAFPQI
TAF AMD
KPQI 151711Z 1517/1612 26004KT P6SM BKN045
     FM152300 VRB03KT P6SM SCT200
     FM160900 19004KT P6SM BKN030=



000
FTUS41 KCAR 151100
TAFBGR
TAF
KBGR 151120Z 1512/1612 00000KT P6SM BKN045
     FM151500 VRB03KT P6SM SCT050
     FM160900 VRB03KT P6SM BKN025=



000
FTUS41 KCAR 151100
TAFHUL
TAF
KHUL 151120Z 1512/1612 VRB03KT P6SM BKN045
     FM152100 26005KT P6SM SCT100
     FM160900 20004KT P6SM BKN030=



000
FTUS41 KCAR 151100
TAFPQI
TAF
KPQI 151120Z 1512/1612 26004KT P6SM BKN045
     FM152300 VRB03KT P6SM SCT200
     FM160900 19004KT P6SM BKN030
      AMD NOT SKED=



000
FTUS41 KCAR 151100
TAFBHB
TAF
KBHB 151120Z 1512/1612 VRB03KT P6SM BKN045
     FM151500 29005KT P6SM FEW050
     FM160900 21004KT P6SM BKN040
      AMD LTD TO CLD VIS AND WIND=



000
FTUS41 KCAR 151100
TAFCAR
TAF
KCAR 151120Z 1512/1612 25004KT P6SM BKN045
     FM152300 25004KT P6SM SCT200
     FM160900 19004KT P6SM BKN030=



000
FTUS41 KCAR 150500
TAFHUL
TAF
KHUL 150530Z 1506/1606 31004KT P6SM BKN040
     FM152200 26004KT P6SM SCT150=



000
FTUS41 KCAR 150500
TAFBGR
TAF
KBGR 150530Z 1506/1606 27004KT P6SM FEW050=



000
FTUS41 KCAR 150500
TAFPQI
TAF
KPQI 150530Z 1506/1606 VRB03KT P6SM SCT040
     FM151500 27006KT P6SM BKN050
     FM152200 26004KT P6SM SCT150
      AMD NOT SKED=



000
FTUS41 KCAR 150500
TAFBHB
TAF
KBHB 150530Z 1506/1606 29004KT P6SM FEW250
      AMD LTD TO CLD VIS AND WIND=



000
FTUS41 KCAR 150500
TAFCAR
TAF
KCAR 150530Z 1506/1606 VRB03KT P6SM SCT040
     FM151500 27005KT P6SM BKN050
     FM152300 25004KT P6SM SCT200=



000
FTUS41 KCAR 142300
TAFBHB
TAF
KBHB 142320Z 1500/1524 36007KT P6SM BKN035
     FM150400 32005KT P6SM SKC
     FM151700 25006KT P6SM FEW250
      AMD LTD TO CLD VIS AND WIND=



000
FTUS41 KCAR 142300
TAFBGR
TAF
KBGR 142320Z 1500/1524 35008KT P6SM SCT250
     FM151600 27004KT P6SM FEW250
     FM152200 20005KT P6SM SCT250=



000
FTUS41 KCAR 142300
TAFHUL
TAF
KHUL 142320Z 1500/1524 33005KT P6SM BKN035
     FM150200 31006KT P6SM SCT100=



000
FTUS41 KCAR 142300
TAFCAR
TAF
KCAR 142320Z 1500/1524 32005KT P6SM BKN025
     FM150200 32004KT P6SM SCT250
     FM151000 VRB03KT P6SM SCT025
     FM151300 VRB03KT P6SM SCT250=



000
FTUS41 KCAR 142300
TAFPQI
TAF
KPQI 142320Z 1500/1524 32005KT P6SM BKN025
     FM150200 32004KT P6SM SCT250
     FM150900 VRB03KT P6SM SCT050
     FM151300 VRB03KT P6SM SCT250
      AMD NOT SKED=



000
FTUS41 KCAR 141900 AAA
TAFCAR
TAF AMD
KCAR 141909Z 1419/1518 31008KT P6SM BKN030
     FM142100 32007KT P6SM BKN035
     FM142300 32006KT P6SM SCT030
     FM150200 32004KT P6SM SCT250=



000
FTUS41 KCAR 141700
TAFBGR
TAF
KBGR 141736Z 1418/1518 33008KT P6SM FEW090
     FM150200 33004KT P6SM FEW250=



000
FTUS41 KCAR 141700
TAFPQI
TAF
KPQI 141736Z 1418/1518 31008KT P6SM BKN030
     FM142200 32006KT P6SM SCT030
     FM150200 32004KT P6SM SCT250
      TEMPO 1508/1511 3SM BR
      AMD NOT SKED=



000
FTUS41 KCAR 141700
TAFHUL
TAF
KHUL 141736Z 1418/1518 31010G17KT P6SM BKN050
     FM150000 31006KT P6SM SCT250=



000
FTUS41 KCAR 141700
TAFBHB
TAF
KBHB 141736Z 1418/1518 32010G17KT P6SM FEW250
     FM150000 36009KT P6SM FEW250
      AMD LTD TO CLD VIS AND WIND=



000
FTUS41 KCAR 141700
TAFCAR
TAF
KCAR 141736Z 1418/1518 31008KT P6SM BKN035
     FM142100 32007KT P6SM BKN035
     FM142300 32006KT P6SM SCT030
     FM150200 32004KT P6SM SCT250=



000
FTUS41 KCAR 141300 AAA
TAFBGR
TAF AMD
KBGR 141306Z 1413/1512 30008G16KT P6SM BKN030
     FM141500 31008KT P6SM BKN035
     FM142000 32007KT P6SM FEW250
     FM150200 VRB03KT P6SM FEW250=



000
FTUS41 KCAR 141300 AAA
TAFHUL
TAF AMD
KHUL 141305Z 1413/1512 28009KT P6SM BKN020
     FM141500 31009KT P6SM BKN040
     FM142100 32007KT P6SM SCT100=



000
FTUS41 KCAR 141300 AAA
TAFCAR
TAF AMD
KCAR 141305Z 1413/1512 25008KT P6SM BKN020
     FM141400 31009G18KT P6SM BKN035
     FM142200 32006KT P6SM SCT140=



000
FTUS41 KCAR 141100
TAFBGR
TAF
KBGR 141120Z 1412/1512 30008G16KT P6SM FEW035
     FM142000 32007KT P6SM FEW250
     FM150200 VRB03KT P6SM FEW250=



000
FTUS41 KCAR 141100
TAFCAR
TAF
KCAR 141120Z 1412/1512 25008KT P6SM SCT025
     FM141400 31009G18KT P6SM BKN035
     FM142200 32006KT P6SM SCT140=



000
FTUS41 KCAR 141100
TAFPQI
TAF
KPQI 141120Z 1412/1512 27008KT P6SM SCT020
     FM141500 31009G18KT P6SM BKN040
     FM142200 32006KT P6SM SCT150
      AMD NOT SKED=



000
FTUS41 KCAR 141100
TAFHUL
TAF
KHUL 141120Z 1412/1512 28009KT P6SM SCT035
     FM141500 31009KT P6SM BKN040
     FM142100 32007KT P6SM SCT100=



000
FTUS41 KCAR 141100
TAFBHB
TAF
KBHB 141120Z 1412/1512 32010KT P6SM FEW015
     FM150300 33005KT P6SM FEW250
      AMD LTD TO CLD VIS AND WIND=



000
FTUS41 KCAR 141000 AAC
TAFHUL
TAF AMD
KHUL 141021Z 1410/1506 23006KT P6SM SCT005 BKN025
     FM141200 30009KT P6SM BKN015
     FM141400 31009KT P6SM BKN035
     FM142100 32007KT P6SM SCT250=



000
FTUS41 KCAR 141000 AAB
TAFCAR
TAF AMD
KCAR 141021Z 1410/1506 25005KT P6SM SCT005 BKN035
     FM141400 30009G18KT P6SM BKN025
     FM141600 31009G18KT P6SM BKN035
     FM142300 32007KT P6SM FEW035=



000
FTUS41 KCAR 140900 AAA
TAFBGR
TAF AMD
KBGR 140911Z 1409/1506 29005KT P6SM SCT006 BKN025
      TEMPO 1409/1411 BKN008
     FM141100 29008KT P6SM SCT015
     FM141600 32010KT P6SM SCT120=



000
FTUS41 KCAR 140900 AAB
TAFHUL
TAF AMD
KHUL 140909Z 1409/1506 23006KT P6SM SCT005 BKN025
      TEMPO 1409/1411 2SM BR BKN005
     FM141200 30009KT P6SM BKN015
     FM141400 31009KT P6SM BKN035
     FM142100 32007KT P6SM SCT250=



000
FTUS41 KCAR 140800 AAA
TAFCAR
TAF AMD
KCAR 140857Z 1409/1506 18007KT P6SM SCT005 OVC035
      TEMPO 1409/1412 2SM BR BKN005
     FM141200 27008KT P6SM BKN015
     FM141400 30009G18KT P6SM BKN025
     FM141600 31009G18KT P6SM BKN035
     FM142300 32007KT P6SM FEW035=



000
FTUS41 KCAR 140800 AAA
TAFBHB
TAF AMD
KBHB 140855Z 1409/1506 18004KT 6SM BR SCT004
     FM141200 33011KT P6SM SCT020
     FM141600 32011KT P6SM FEW120
      AMD LTD TO CLD VIS AND WIND=



000
FTUS41 KCAR 140600 AAA
TAFHUL
TAF AMD
KHUL 140657Z 1407/1506 18006KT P6SM -SHRA BKN005 OVC015
     FM140900 20005KT P6SM BKN008
      TEMPO 1409/1411 BKN005
     FM141200 30009KT P6SM BKN015
     FM141400 31009KT P6SM BKN035
     FM142100 32007KT P6SM SCT250=



000
FTUS41 KCAR 140500
TAFPQI
TAF
KPQI 140539Z 1406/1506 18007KT P6SM -SHRA OVC020
     FM140900 22005KT P6SM SCT008 OVC015
      TEMPO 1409/1411 BKN008
     FM141300 28009G18KT P6SM BKN025
     FM141600 31008G18KT P6SM BKN035
     FM142300 32005KT P6SM FEW035
      AMD NOT SKED=



000
FTUS41 KCAR 140500
TAFCAR
TAF
KCAR 140539Z 1406/1506 18007KT P6SM -SHRA BKN008 OVC015
     FM140900 22005KT P6SM BKN008 OVC012
     FM141200 27008KT P6SM BKN015
     FM141400 30009G18KT P6SM BKN025
     FM141600 31009G18KT P6SM BKN035
     FM142300 32007KT P6SM FEW035=



000
FTUS41 KCAR 140500
TAFBGR
TAF
KBGR 140539Z 1406/1506 VRB03KT P6SM -SHRA BKN015
     FM140800 VRB03KT P6SM BKN008
      TEMPO 1408/1411 BKN004
     FM141200 29008KT P6SM SCT015
     FM141600 32010KT P6SM SCT120=



000
FTUS41 KCAR 140500
TAFHUL
TAF
KHUL 140539Z 1406/1506 18006KT P6SM -SHRA BKN007 OVC015
     FM140900 20005KT P6SM BKN008
      TEMPO 1409/1411 BKN006
     FM141200 30009KT P6SM BKN015
     FM141400 31009KT P6SM BKN035
     FM142100 32007KT P6SM SCT250=



000
FTUS41 KCAR 140500
TAFBHB
TAF
KBHB 140539Z 1406/1506 18004KT P6SM -SHRA BKN012
     FM140800 00000KT P6SM BKN008
      TEMPO 1408/1411 BKN004
     FM141200 33011KT P6SM SCT020
     FM141600 32011KT P6SM FEW120
      AMD LTD TO CLD VIS AND WIND=



000
FTUS41 KCAR 140300 AAA
TAFBHB
TAF AMD
KBHB 140321Z 1403/1424 VRB03KT 6SM -SHRA SCT008 OVC015
     FM140600 00000KT P6SM BKN003
     FM141200 32010KT P6SM FEW025
      AMD LTD TO CLD VIS AND WIND=



000
FTUS41 KCAR 132300
TAFHUL
TAF
KHUL 132320Z 1400/1424 12005KT P6SM OVC050
      TEMPO 1400/1401 -SHRA
     FM140100 12006KT P6SM -SHRA OVC030
     FM140300 13005KT 6SM -SHRA OVC015
     FM140500 14005KT 3SM -SHRA BR OVC008
     FM140900 22005KT P6SM BKN008
     FM141400 31010KT P6SM SCT040=



000
FTUS41 KCAR 132300
TAFCAR
TAF
KCAR 132320Z 1400/1424 07004KT P6SM OVC070
     FM140100 09005KT P6SM -SHRA OVC040
     FM140300 14005KT 6SM -SHRA OVC015
     FM140500 16005KT 3SM -SHRA BR OVC008
     FM140900 22005KT P6SM BKN010
     FM141300 32012G18KT P6SM BKN050=



000
FTUS41 KCAR 132300
TAFBGR
TAF
KBGR 132320Z 1400/1424 14005KT P6SM -SHRA OVC040
      TEMPO 1400/1402 -SHRA OVC020
     FM140200 15004KT 6SM -SHRA OVC015
     FM140300 VRB03KT 5SM -SHRA BR OVC008
     FM140500 00000KT P6SM OVC003
     FM140900 27004KT P6SM SCT015
     FM141200 32010KT P6SM FEW025=



000
FTUS41 KCAR 132300
TAFBHB
TAF
KBHB 132320Z 1400/1424 08005KT P6SM -SHRA OVC045
      TEMPO 1400/1402 5SM -SHRA BR OVC020
     FM140200 12006KT 3SM -SHRA OVC015
     FM140300 13004KT 3SM -SHRA OVC004
     FM140600 00000KT P6SM BKN003
     FM141200 32010KT P6SM FEW025
      AMD LTD TO CLD VIS AND WIND=



000
FTUS41 KCAR 132300
TAFPQI
TAF
KPQI 132320Z 1400/1424 08004KT P6SM OVC050
      TEMPO 1400/1401 -SHRA
     FM140100 09005KT P6SM -SHRA OVC040
     FM140300 14006KT 5SM -SHRA BR OVC010
     FM140900 22005KT P6SM BKN012
     FM141400 29012G18KT P6SM SCT040
      AMD NOT SKED=



000
FTUS41 KCAR 131700 RRA
TAFCAR
TAF
KCAR 131748Z 1318/1418 14005KT P6SM OVC250
     FM140000 12005KT P6SM -SHRA SCT015 OVC040
     FM140300 14005KT 3SM -SHRA OVC015
     FM140500 16005KT 3SM -SHRA OVC007
     FM140800 22005KT P6SM SCT005 BKN015
     FM141100 26005KT P6SM BKN025
     FM141400 27006KT P6SM BKN035=



000
FTUS41 KCAR 131700 RRA
TAFBHB
TAF
KBHB 131748Z 1318/1418 11009KT P6SM BKN250
     FM140100 11007KT P6SM OVC025
     FM140300 13004KT 2SM -SHRA OVC006
     FM140500 00000KT 1SM -SHRA OVC003
     FM140600 00000KT P6SM BKN003
     FM140900 05006KT P6SM SCT008
     FM141200 32010KT P6SM SCT025
      AMD LTD TO CLD VIS AND WIND=



000
FTUS41 KCAR 131700 RRA
TAFBGR
TAF
KBGR 131748Z 1318/1418 13006KT P6SM OVC250
     FM132300 12006KT P6SM -SHRA OVC050
     FM140100 13005KT P6SM -SHRA OVC025
     FM140300 VRB03KT 3SM -SHRA OVC008
     FM140500 00000KT P6SM OVC003
     FM140900 27004KT P6SM SCT015
     FM141200 32008KT P6SM SCT025=



000
FTUS41 KCAR 131700 RRA
TAFHUL
TAF
KHUL 131748Z 1318/1418 13005KT P6SM OVC250
     FM140100 12006KT P6SM -SHRA SCT020 OVC035
     FM140300 13005KT 5SM -SHRA OVC015
     FM140500 14005KT 3SM -SHRA OVC007
     FM140800 22005KT P6SM BKN008
     FM141000 25005KT P6SM SCT008 BKN020
     FM141400 31007KT P6SM SCT025 BKN040=



000
FTUS41 KCAR 131700 RRA
TAFPQI
TAF
KPQI 131748Z 1318/1418 14006KT P6SM OVC250
     FM140000 12005KT P6SM -SHRA OVC040
     FM140300 14006KT 3SM -SHRA OVC015
     FM140800 20006KT 5SM -SHRA BKN007
     FM141000 22005KT P6SM BKN007
     FM141200 27005KT P6SM BKN015
     FM141400 29006KT P6SM SCT025 BKN050
      AMD NOT SKED=



000
FTUS41 KCAR 131100
TAFHUL
TAF
KHUL 131120Z 1312/1412 VRB03KT P6SM SCT250
     FM140000 12006KT P6SM OVC040
     FM140200 13006KT 6SM -SHRA OVC020
     FM140400 14006KT 4SM -SHRA BR SCT008 OVC012
     FM141000 25006KT P6SM BKN012=



000
FTUS41 KCAR 131100
TAFBHB
TAF
KBHB 131120Z 1312/1412 04007KT P6SM FEW250
     FM132200 11008KT P6SM OVC040
     FM140000 11008KT 6SM -SHRA OVC020
     FM140200 12006KT 4SM -SHRA BR OVC010
     FM140400 12006KT 3SM -SHRA OVC005
     FM140800 12006KT P6SM BKN005
      AMD LTD TO CLD VIS AND WIND=



000
FTUS41 KCAR 131100
TAFBGR
TAF
KBGR 131120Z 1312/1412 VRB03KT P6SM BKN250
     FM132200 12006KT P6SM -SHRA OVC040
     FM140000 13005KT 6SM -SHRA OVC015
     FM140300 17004KT 4SM -SHRA BR OVC005
     FM140800 00000KT P6SM BKN005=



000
FTUS41 KCAR 131100
TAFPQI
TAF
KPQI 131120Z 1312/1412 VRB03KT P6SM SCT250
     FM140000 12005KT P6SM OVC025
     FM140200 13005KT 6SM -SHRA OVC020
     FM140400 14005KT 4SM -SHRA BR OVC012
     FM141000 24005KT P6SM BKN012
      AMD LTD TO CLD VIS AND WIND=



000
FTUS41 KCAR 131100
TAFCAR
TAF
KCAR 131120Z 1312/1412 VRB03KT P6SM BKN250
     FM140000 12005KT P6SM OVC025
     FM140200 13005KT 6SM -SHRA OVC020
     FM140400 14005KT 4SM -SHRA BR SCT008 OVC012
     FM141000 24005KT P6SM BKN012=



000
FTUS41 KCAR 131000 AAB
TAFCAR
TAF AMD
KCAR 131020Z 1310/1406 VRB03KT 3SM BR SCT002
      TEMPO 1310/1311 1SM BR BKN002
     FM131100 VRB03KT P6SM SCT250
     FM140000 11005KT P6SM VCSH OVC035
     FM140200 13005KT 6SM -SHRA OVC020
     FM140400 14005KT 4SM -SHRA BR SCT008 OVC012=



000
FTUS41 KCAR 131000 AAA
TAFCAR
TAF AMD
KCAR 131009Z 1310/1406 VRB03KT 3SM BR SCT002
      TEMPO 1310/1312 1SM BR BKN002
     FM131200 VRB03KT P6SM SCT250
     FM140000 11005KT P6SM VCSH OVC035
     FM140200 13005KT 6SM -SHRA OVC020
     FM140400 14005KT 4SM -SHRA BR SCT008 OVC012=



000
FTUS41 KCAR 130500
TAFBGR
TAF
KBGR 130527Z 1306/1406 VRB03KT P6SM SKC
     FM132100 12006KT P6SM OVC040
     FM132300 12006KT P6SM -SHRA OVC025
     FM140100 15005KT 6SM -SHRA OVC010
     FM140300 17004KT 4SM -SHRA BR OVC005=



000
FTUS41 KCAR 130500
TAFCAR
TAF
KCAR 130527Z 1306/1406 VRB03KT P6SM SKC
     FM140000 11005KT P6SM VCSH OVC035
     FM140200 13005KT 6SM -SHRA OVC020
     FM140400 14005KT 4SM -SHRA BR SCT008 OVC012=



000
FTUS41 KCAR 130500
TAFHUL
TAF
KHUL 130527Z 1306/1406 00000KT P6SM SKC
     FM131900 13006KT P6SM BKN200
     FM140000 13006KT P6SM VCSH OVC030
     FM140200 13006KT 6SM -SHRA OVC020
     FM140400 14006KT 4SM -SHRA BR SCT008 OVC012=



000
FTUS41 KCAR 130500
TAFBHB
TAF
KBHB 130527Z 1306/1406 03005KT P6SM SKC
     FM132100 11008KT P6SM -SHRA OVC040
     FM132300 11008KT P6SM -SHRA OVC020
     FM140100 12006KT 6SM -SHRA OVC010
     FM140300 12006KT 4SM -SHRA BR OVC005
      AMD LTD TO CLD VIS AND WIND=



000
FTUS41 KCAR 130500
TAFPQI
TAF
KPQI 130527Z 1306/1406 VRB03KT P6SM SKC
     FM140100 12005KT P6SM VCSH OVC025
     FM140200 13005KT 6SM -SHRA OVC020
     FM140400 14005KT 4SM -SHRA BR SCT008 OVC012
      AMD NOT SKED=



    US Dept of Commerce
    National Oceanic and Atmospheric Administration
    National Weather Service
    1325 East West Highway
    Silver Spring, MD 20910
    Page Author: NWS Internet Services Team
Disclaimer
Information Quality
Credits
Glossary
Privacy Policy
Freedom of Information Act (FOIA)
About Us
Career Opportunities